Time;durP1;ratioP1;P1;durP2;ratioP2;P2;SDS_P1;SDS_P2;PMS_P1;PMS_P2;Temp;Humidity;BMP_temperature;BMP_pressure;BME280_temperature;BME280_humidity;BME280_pressure;Samples;Min_cycle;Max_cycle;Signal;HPM_P1;HPM_P2
2023/02/11 00:01:41;;;;;;;4.45;3.53;;;;;;;-4.62;77.23;101586.72;5113830;28;20052;-69
2023/02/11 00:04:10;;;;;;;4.43;4.05;;;;;;;-4.64;77.15;101583.22;5114200;28;20108;-69
2023/02/11 00:06:39;;;;;;;3.70;3.40;;;;;;;-4.68;76.84;101575.34;5113877;28;20048;-69
2023/02/11 00:09:08;;;;;;;5.60;5.20;;;;;;;-4.72;77.01;101574.16;5113825;28;20098;-69
2023/02/11 00:11:38;;;;;;;5.32;3.45;;;;;;;-4.67;77.10;101582.94;5117688;28;20052;-69
2023/02/11 00:14:08;;;;;;;1.38;1.27;;;;;;;-4.63;76.89;101579.97;5118060;28;20423;-69
2023/02/11 00:16:36;;;;;;;3.50;1.88;;;;;;;-4.62;76.65;101576.75;5117876;28;20044;-69
2023/02/11 00:19:06;;;;;;;3.78;3.42;;;;;;;-4.64;76.62;101575.75;5118122;28;20118;-69
2023/02/11 00:21:35;;;;;;;3.50;2.55;;;;;;;-4.63;77.34;101582.44;5118320;28;20422;-69
2023/02/11 00:24:04;;;;;;;7.72;6.97;;;;;;;-4.60;76.91;101575.25;5117615;28;20036;-69
2023/02/11 00:26:35;;;;;;;3.55;2.78;;;;;;;-4.60;77.05;101577.75;5117929;28;20429;-69
2023/02/11 00:29:06;;;;;;;2.75;2.40;;;;;;;-4.56;77.19;101587.28;5117970;28;20047;-69
2023/02/11 00:31:34;;;;;;;3.88;2.28;;;;;;;-4.57;77.52;101577.16;5117601;28;20051;-69
2023/02/11 00:34:05;;;;;;;3.72;2.35;;;;;;;-4.57;77.31;101583.00;5117425;27;20047;-69
2023/02/11 00:36:34;;;;;;;4.70;4.38;;;;;;;-4.58;77.27;101583.75;5117758;28;20430;-69
2023/02/11 00:39:04;;;;;;;8.67;4.47;;;;;;;-4.61;77.41;101583.50;5116268;28;20123;-69
2023/02/11 00:41:35;;;;;;;2.05;1.95;;;;;;;-4.66;77.78;101587.19;5116193;28;20332;-69
2023/02/11 00:44:05;;;;;;;6.03;5.53;;;;;;;-4.75;77.34;101577.25;5117315;28;20039;-69
2023/02/11 00:46:34;;;;;;;3.83;2.78;;;;;;;-4.69;77.25;101579.44;5117319;27;20052;-69
2023/02/11 00:49:03;;;;;;;3.05;2.75;;;;;;;-4.66;77.42;101578.84;5117271;28;20113;-69
2023/02/11 00:51:32;;;;;;;0.90;0.87;;;;;;;-4.69;77.36;101576.94;5116320;28;20039;-69
2023/02/11 00:54:00;;;;;;;2.27;1.77;;;;;;;-4.71;77.50;101570.94;5117063;28;20642;-69
2023/02/11 00:56:29;;;;;;;3.47;3.25;;;;;;;-4.75;77.55;101577.25;5117530;28;20376;-69
2023/02/11 00:58:58;;;;;;;2.42;2.22;;;;;;;-4.72;77.20;101579.16;5117381;28;20112;-69
2023/02/11 01:01:28;;;;;;;1.63;1.52;;;;;;;-4.75;77.32;101574.78;5116988;28;20044;-69
2023/02/11 01:03:57;;;;;;;5.15;4.65;;;;;;;-4.76;77.16;101582.13;5116975;27;20126;-69
2023/02/11 01:06:26;;;;;;;2.33;2.17;;;;;;;-4.63;77.71;101576.63;5115992;28;20159;-69
2023/02/11 01:08:55;;;;;;;2.13;2.03;;;;;;;-4.57;77.10;101580.53;5116819;28;20050;-69
2023/02/11 01:11:23;;;;;;;7.85;5.97;;;;;;;-4.53;77.43;101576.69;5115637;28;20101;-69
2023/02/11 01:13:52;;;;;;;2.63;2.38;;;;;;;-4.55;77.07;101568.19;5117039;28;20047;-69
2023/02/11 01:16:23;;;;;;;4.90;4.57;;;;;;;-4.70;77.12;101567.72;5116752;28;20058;-69
2023/02/11 01:18:55;;;;;;;8.30;4.20;;;;;;;-4.75;77.34;101563.94;5116688;28;20044;-69
2023/02/11 01:21:24;;;;;;;2.78;1.67;;;;;;;-4.75;77.22;101571.41;5116498;28;20044;-69
2023/02/11 01:23:53;;;;;;;2.65;2.45;;;;;;;-4.82;77.20;101569.97;5117187;28;20039;-69
2023/02/11 01:26:22;;;;;;;1.45;1.35;;;;;;;-4.80;77.13;101575.13;5116433;28;20134;-69
2023/02/11 01:28:51;;;;;;;4.72;4.32;;;;;;;-4.83;77.18;101569.84;5116742;28;20130;-69
2023/02/11 01:31:20;;;;;;;3.75;2.83;;;;;;;-4.83;77.36;101559.88;5115234;28;20050;-69
2023/02/11 01:33:49;;;;;;;1.65;1.55;;;;;;;-4.83;77.46;101558.28;5116300;28;20501;-68
2023/02/11 01:36:19;;;;;;;3.15;2.85;;;;;;;-4.77;76.80;101555.44;5116644;28;20043;-69
2023/02/11 01:38:48;;;;;;;2.22;2.10;;;;;;;-4.75;77.47;101554.84;5115426;28;20047;-69
2023/02/11 01:41:21;;;;;;;3.75;3.50;;;;;;;-4.78;76.87;101553.72;5116606;28;20052;-68
2023/02/11 01:43:50;;;;;;;4.70;4.28;;;;;;;-4.86;76.98;101554.63;5115264;28;20035;-68
2023/02/11 01:46:33;;;;;;;2.13;1.95;;;;;;;-4.85;77.24;101543.94;5116371;28;20105;-68
2023/02/11 01:49:07;;;;;;;2.60;2.47;;;;;;;-4.83;77.43;101544.97;5116316;28;20403;-68
2023/02/11 01:51:42;;;;;;;4.50;4.15;;;;;;;-4.85;76.88;101536.47;5116058;28;20048;-68
2023/02/11 01:59:45;;;;;;;2.90;2.70;;;;;;;-4.91;76.81;101520.97;5114729;28;20047;-68
2023/02/11 02:02:17;;;;;;;1.65;1.55;;;;;;;-5.00;77.06;101516.06;5114988;28;20044;-69
2023/02/11 02:04:53;;;;;;;2.42;2.22;;;;;;;-5.04;77.18;101513.16;5115836;28;20135;-69
2023/02/11 02:07:33;;;;;;;3.92;3.58;;;;;;;-5.03;76.96;101510.81;5115734;28;20055;-68
2023/02/11 02:10:06;;;;;;;3.47;2.38;;;;;;;-4.98;77.48;101513.69;5115713;28;20081;-68
2023/02/11 02:12:37;;;;;;;0.98;0.95;;;;;;;-5.01;76.85;101508.44;5115636;28;20050;-68
2023/02/11 02:15:20;;;;;;;3.83;3.53;;;;;;;-5.07;76.79;101501.31;5115817;28;20081;-68
2023/02/11 02:17:58;;;;;;;1.55;1.45;;;;;;;-5.07;76.58;101502.94;5115514;28;20047;-68
2023/02/11 02:21:01;;;;;;;3.37;3.17;;;;;;;-5.09;76.83;101499.44;5116127;27;20468;-68
2023/02/11 02:23:48;;;;;;;3.88;2.35;;;;;;;-5.01;77.19;101493.50;5115752;28;20051;-68
2023/02/11 02:26:42;;;;;;;10.15;4.82;;;;;;;-4.95;77.26;101484.13;5116225;28;20394;-68
2023/02/11 02:29:43;;;;;;;6.03;5.53;;;;;;;-4.95;76.95;101476.66;5103251;28;20047;-68
2023/02/11 02:32:30;;;;;;;4.63;3.67;;;;;;;-4.92;76.88;101474.44;5114864;28;20081;-68
2023/02/11 02:35:05;;;;;;;1.95;1.85;;;;;;;-4.92;76.85;101471.94;5115428;28;20394;-68
2023/02/11 02:37:40;;;;;;;1.80;1.10;;;;;;;-4.90;76.98;101463.88;5115414;28;20075;-68
2023/02/11 02:40:14;;;;;;;4.78;2.60;;;;;;;-4.89;76.62;101469.72;5115137;28;20055;-68
2023/02/11 02:42:44;;;;;;;4.95;4.53;;;;;;;-4.91;77.00;101461.22;5115076;28;20056;-67
2023/02/11 02:45:14;;;;;;;2.55;2.35;;;;;;;-4.89;76.95;101465.59;5115009;28;20122;-68
2023/02/11 02:47:44;;;;;;;2.67;2.47;;;;;;;-4.94;76.78;101460.94;5114743;28;20527;-68
2023/02/11 02:50:17;;;;;;;2.15;2.05;;;;;;;-4.96;76.87;101464.94;5114918;28;20061;-68
2023/02/11 02:53:00;;;;;;;4.78;2.60;;;;;;;-5.01;76.65;101458.66;5115412;28;20444;-68
2023/02/11 02:55:43;;;;;;;1.33;1.23;;;;;;;-5.07;76.62;101458.13;5114790;28;20096;-68
2023/02/11 02:58:36;;;;;;;2.45;2.25;;;;;;;-5.10;76.43;101457.84;5114965;28;20075;-68
2023/02/11 03:01:15;;;;;;;2.78;2.58;;;;;;;-5.12;76.28;101457.72;5115009;28;20073;-68
2023/02/11 03:03:53;;;;;;;1.23;1.13;;;;;;;-5.13;76.57;101460.06;5114825;28;20064;-68
2023/02/11 03:06:30;;;;;;;0.93;0.93;;;;;;;-5.12;76.38;101459.34;5114648;28;20043;-68
2023/02/11 03:09:05;;;;;;;2.45;2.25;;;;;;;-5.06;76.63;101449.94;5114577;28;20071;-68
2023/02/11 03:11:38;;;;;;;1.48;1.38;;;;;;;-5.03;76.76;101450.19;5114520;28;20044;-68
2023/02/11 03:14:12;;;;;;;0.95;0.95;;;;;;;-5.02;76.34;101451.94;5114420;28;20047;-68
2023/02/11 03:16:43;;;;;;;1.13;1.05;;;;;;;-5.13;76.47;101457.56;5114750;28;20060;-68
2023/02/11 03:19:18;;;;;;;3.75;3.00;;;;;;;-5.16;76.52;101447.38;5114302;28;20120;-67
2023/02/11 03:21:51;;;;;;;3.88;2.47;;;;;;;-5.16;76.25;101438.28;5114671;28;20457;-67
2023/02/11 03:24:26;;;;;;;1.98;1.85;;;;;;;-5.17;76.49;101443.13;5114807;28;20066;-67
2023/02/11 03:26:59;;;;;;;2.58;2.47;;;;;;;-5.23;76.11;101447.56;5114611;28;20097;-68
2023/02/11 03:29:35;;;;;;;0.65;0.65;;;;;;;-5.28;76.44;101441.28;5114995;28;20412;-67
2023/02/11 03:32:14;;;;;;;3.42;2.42;;;;;;;-5.45;76.31;101443.13;5114497;28;20077;-67
2023/02/11 03:34:50;;;;;;;2.58;2.35;;;;;;;-5.47;76.43;101434.66;5114414;28;20135;-67
2023/02/11 03:37:23;;;;;;;2.58;1.60;;;;;;;-5.63;76.03;101399.19;5114206;28;20059;-67
2023/02/11 03:39:57;;;;;;;3.85;2.55;;;;;;;-5.47;75.85;101423.84;5114151;28;20043;-67
2023/02/11 03:42:33;;;;;;;1.17;1.17;;;;;;;-5.55;76.18;101424.75;5114050;28;20054;-67
2023/02/11 03:45:08;;;;;;;3.13;2.50;;;;;;;-5.54;75.94;101421.53;5113928;28;20047;-67
2023/02/11 03:47:40;;;;;;;1.00;0.98;;;;;;;-5.57;76.37;101411.31;5114038;28;20040;-67
2023/02/11 03:50:15;;;;;;;1.48;1.38;;;;;;;-5.47;76.11;101423.84;5114342;28;20050;-67
2023/02/11 03:52:45;;;;;;;3.30;3.10;;;;;;;-5.44;76.30;101415.03;5114376;28;20105;-68
2023/02/11 03:55:18;;;;;;;4.70;3.78;;;;;;;-5.40;76.20;101410.34;5114282;28;20094;-67
2023/02/11 03:57:48;;;;;;;1.02;1.02;;;;;;;-5.47;76.16;101408.94;5113955;28;20077;-67
2023/02/11 04:00:17;;;;;;;1.38;1.27;;;;;;;-5.47;76.13;101404.81;5114201;28;20455;-67
2023/02/11 04:02:46;;;;;;;1.30;1.25;;;;;;;-5.49;76.14;101398.81;5114085;28;20440;-67
2023/02/11 04:05:16;;;;;;;0.73;0.73;;;;;;;-5.48;76.37;101408.06;5114429;28;20397;-67
2023/02/11 04:07:45;;;;;;;2.65;2.30;;;;;;;-5.53;76.21;101404.28;5114165;28;20104;-67
2023/02/11 04:10:14;;;;;;;6.05;1.67;;;;;;;-5.59;76.33;101403.69;5114111;28;20044;-67
2023/02/11 04:12:43;;;;;;;1.30;1.30;;;;;;;-5.59;76.26;101401.22;5114034;28;20074;-67
2023/02/11 04:15:12;;;;;;;15.43;2.72;;;;;;;-5.64;76.20;101394.94;5113773;28;20152;-67
2023/02/11 04:17:41;;;;;;;3.42;2.65;;;;;;;-5.66;76.35;101390.56;5113767;28;20064;-67
2023/02/11 04:20:11;;;;;;;0.52;0.52;;;;;;;-5.67;76.36;101384.75;5113727;28;20074;-67
2023/02/11 04:22:42;;;;;;;1.20;1.17;;;;;;;-5.66;76.15;101388.97;5113821;28;20051;-67
2023/02/11 04:25:11;;;;;;;0.80;0.80;;;;;;;-5.65;76.34;101380.78;5113674;28;20071;-67
2023/02/11 04:27:39;;;;;;;3.90;3.47;;;;;;;-5.71;76.43;101385.19;5114202;28;20474;-67
2023/02/11 04:30:12;;;;;;;1.15;1.10;;;;;;;-5.71;76.10;101385.19;5113651;28;20089;-68
2023/02/11 04:32:41;;;;;;;5.15;4.70;;;;;;;-5.75;76.26;101387.28;5113977;28;20418;-67
2023/02/11 04:35:10;;;;;;;6.70;6.03;;;;;;;-5.74;76.31;101386.53;5113526;28;20036;-67
2023/02/11 04:37:38;;;;;;;3.03;2.83;;;;;;;-5.70;76.69;101388.56;5113871;28;20349;-67
2023/02/11 04:40:10;;;;;;;2.20;2.10;;;;;;;-5.71;76.69;101392.66;5113516;28;20333;-67
2023/02/11 04:42:39;;;;;;;1.65;1.55;;;;;;;-5.66;76.66;101390.56;5113528;28;20272;-67
2023/02/11 04:45:08;;;;;;;2.37;2.27;;;;;;;-5.61;76.58;101390.25;5113423;28;20134;-67
2023/02/11 04:47:37;;;;;;;2.85;2.63;;;;;;;-5.51;76.53;101387.88;5113461;28;20375;-67
2023/02/11 04:50:06;;;;;;;2.80;2.57;;;;;;;-5.48;76.55;101383.19;5113505;28;20066;-67
2023/02/11 04:52:35;;;;;;;0.80;0.80;;;;;;;-5.47;76.45;101374.97;5113423;28;20047;-67
2023/02/11 04:55:04;;;;;;;0.60;0.60;;;;;;;-5.46;76.69;101371.75;5113283;28;20050;-67
2023/02/11 04:57:35;;;;;;;5.90;5.43;;;;;;;-5.42;76.50;101373.75;5116831;28;20312;-67
2023/02/11 05:00:04;;;;;;;2.20;2.10;;;;;;;-5.45;76.80;101382.59;5117424;28;20134;-67
2023/02/11 05:02:33;;;;;;;;;;;;;;;-5.44;76.38;101395.13;5118145;28;20465;-67
2023/02/11 05:05:02;;;;;;;1.48;1.42;;;;;;;-5.46;76.71;101395.75;5117000;28;19926;-67
2023/02/11 05:07:31;;;;;;;1.13;1.10;;;;;;;-5.44;76.51;101395.13;5116887;27;20070;-67
2023/02/11 05:10:00;;;;;;;5.65;4.60;;;;;;;-5.33;76.92;101387.78;5116875;28;20042;-67
2023/02/11 05:12:28;;;;;;;0.80;0.80;;;;;;;-5.26;77.01;101390.06;5117107;28;20069;-67
2023/02/11 05:14:59;;;;;;;1.35;1.25;;;;;;;-5.30;76.53;101378.94;5116640;28;20039;-67
2023/02/11 05:17:27;;;;;;;1.13;1.08;;;;;;;-5.30;76.60;101373.13;5116704;28;20047;-67
2023/02/11 05:19:56;;;;;;;2.43;2.27;;;;;;;-5.19;76.61;101372.44;5116937;28;20132;-67
2023/02/11 05:22:25;;;;;;;4.97;3.55;;;;;;;-5.16;76.57;101377.69;5116636;28;20047;-67
2023/02/11 05:24:54;;;;;;;2.70;2.33;;;;;;;-5.10;77.12;101371.63;5116582;28;20032;-67
2023/02/11 05:27:23;;;;;;;0.93;0.90;;;;;;;-5.10;76.81;101384.06;5116764;28;20044;-67
2023/02/11 05:29:51;;;;;;;1.70;1.60;;;;;;;-5.07;77.01;101374.41;5116537;28;20086;-67
2023/02/11 05:32:22;;;;;;;5.95;4.13;;;;;;;-5.10;77.04;101368.25;5116713;28;20051;-67
2023/02/11 05:34:51;;;;;;;3.50;3.25;;;;;;;-5.11;76.95;101357.44;5116661;28;20044;-67
2023/02/11 05:37:20;;;;;;;1.60;1.50;;;;;;;-5.04;77.19;101358.88;5116319;28;20127;-67
2023/02/11 05:39:48;;;;;;;1.48;1.38;;;;;;;-5.05;77.21;101354.63;5116903;28;20337;-67
2023/02/11 05:42:17;;;;;;;1.58;1.48;;;;;;;-5.05;77.01;101355.50;5116562;28;20168;-66
2023/02/11 05:44:46;;;;;;;2.80;2.60;;;;;;;-5.04;76.71;101353.88;5116180;28;20067;-67
2023/02/11 05:47:18;;;;;;;3.45;2.38;;;;;;;-5.07;77.22;101356.09;5116123;28;20048;-67
2023/02/11 05:49:48;;;;;;;2.67;2.50;;;;;;;-5.05;77.36;101348.03;5115989;28;20432;-66
2023/02/11 05:52:17;;;;;;;6.70;5.35;;;;;;;-4.98;77.20;101345.31;5116377;28;20336;-67
2023/02/11 05:54:45;;;;;;;3.50;3.20;;;;;;;-4.97;77.36;101336.25;5116590;28;20044;-66
2023/02/11 05:57:15;;;;;;;6.70;4.78;;;;;;;-4.94;77.42;101336.50;5115960;28;20096;-67
2023/02/11 05:59:44;;;;;;;3.28;3.00;;;;;;;-4.84;77.14;101344.03;5115935;28;20066;-67
2023/02/11 06:02:12;;;;;;;3.05;2.80;;;;;;;-4.80;77.04;101338.59;5116140;28;20077;-67
2023/02/11 06:04:43;;;;;;;1.67;1.58;;;;;;;-4.77;76.99;101331.34;5116699;27;20069;-67
2023/02/11 06:07:13;;;;;;;5.57;3.67;;;;;;;-4.75;77.51;101318.28;5116285;28;20087;-67
2023/02/11 06:09:42;;;;;;;3.28;3.03;;;;;;;-4.72;77.38;101335.13;5115752;28;20043;-66
2023/02/11 06:12:11;;;;;;;6.47;1.88;;;;;;;-4.69;76.64;101335.38;5115594;28;20040;-66
2023/02/11 06:14:40;;;;;;;5.50;4.47;;;;;;;-4.68;77.04;101331.28;5115924;28;20118;-66
2023/02/11 06:17:09;;;;;;;2.13;1.92;;;;;;;-4.73;76.88;101322.53;5115387;28;20036;-66
2023/02/11 06:19:38;;;;;;;1.23;1.13;;;;;;;-4.75;76.63;101325.78;5115494;28;20035;-66
2023/02/11 06:22:07;;;;;;;3.83;3.50;;;;;;;-4.74;77.19;101321.66;5115659;28;20280;-66
2023/02/11 06:24:37;;;;;;;3.50;3.17;;;;;;;-4.78;76.96;101309.72;5115356;28;20059;-66
2023/02/11 06:27:26;;;;;;;6.60;5.97;;;;;;;-4.89;76.77;101305.41;5115375;28;20042;-67
2023/02/11 06:29:55;;;;;;;2.10;1.95;;;;;;;-4.97;76.78;101304.78;5115494;28;20108;-66
2023/02/11 06:32:24;;;;;;;2.65;2.55;;;;;;;-4.92;76.96;101307.66;5115232;28;20055;-66
2023/02/11 06:35:11;;;;;;;2.40;2.20;;;;;;;-4.87;77.46;101301.47;5115183;28;20551;-66
2023/02/11 06:37:40;;;;;;;4.15;3.83;;;;;;;-5.03;77.12;101291.78;5115069;28;20051;-66
2023/02/11 06:40:11;;;;;;;2.83;2.63;;;;;;;-5.05;77.52;101304.84;5115113;28;20051;-66
2023/02/11 06:42:41;;;;;;;1.25;1.15;;;;;;;-5.05;77.21;101299.88;5115049;28;20116;-66
2023/02/11 06:45:12;;;;;;;1.23;1.13;;;;;;;-4.87;77.58;101323.88;5115024;28;20097;-66
2023/02/11 06:47:41;;;;;;;4.45;4.05;;;;;;;-4.85;77.52;101312.41;5114924;28;20058;-66
2023/02/11 06:50:13;;;;;;;1.73;1.63;;;;;;;-4.86;77.69;101310.66;5114955;28;20070;-66
2023/02/11 06:52:42;;;;;;;8.85;4.22;;;;;;;-4.83;77.58;101315.91;5114869;28;20050;-66
2023/02/11 06:55:12;;;;;;;3.17;2.87;;;;;;;-4.72;77.21;101305.25;5114838;28;20497;-66
2023/02/11 06:57:41;;;;;;;3.45;3.15;;;;;;;-4.59;77.79;101322.09;5113539;28;20047;-67
2023/02/11 07:00:11;;;;;;;2.00;1.90;;;;;;;-4.46;77.83;101314.94;5094061;28;20066;-66
2023/02/11 07:02:40;;;;;;;4.10;3.45;;;;;;;-4.36;77.63;101317.44;5094312;28;20123;-66
2023/02/11 07:05:09;;;;;;;2.20;2.10;;;;;;;-4.34;77.25;101296.00;5094242;28;20128;-66
2023/02/11 07:07:38;;;;;;;4.00;3.70;;;;;;;-4.24;77.68;101318.47;5094244;28;20470;-66
2023/02/11 07:10:07;;;;;;;2.67;2.47;;;;;;;-4.18;77.69;101319.88;5094179;28;20047;-66
2023/02/11 07:12:37;;;;;;;;;;;;;;;-4.11;77.81;101322.13;5094541;28;20291;-66
2023/02/11 07:15:07;;;;;;;0.68;0.68;;;;;;;-4.03;77.36;101315.25;5094252;28;19927;-66
2023/02/11 07:17:36;;;;;;;17.33;3.80;;;;;;;-4.03;77.60;101315.25;5094028;28;20051;-66
2023/02/11 07:20:05;;;;;;;3.00;2.80;;;;;;;-4.20;77.79;101306.38;5093653;28;20074;-66
2023/02/11 07:22:34;;;;;;;2.10;1.83;;;;;;;-4.11;77.76;101322.13;5093983;28;20131;-66
2023/02/11 07:25:04;;;;;;;2.35;1.90;;;;;;;-4.07;77.67;101314.13;5094061;28;20375;-66
2023/02/11 07:27:32;;;;;;;;;;;;;;;-3.98;77.73;101313.16;5094556;28;20558;-66
2023/02/11 07:30:03;;;;;;;1.88;1.77;;;;;;;-3.80;77.97;101313.06;5093873;28;19920;-66
2023/02/11 07:32:35;;;;;;;1.42;1.33;;;;;;;-3.69;77.19;101311.41;5094160;28;20135;-66
2023/02/11 07:35:04;;;;;;;1.95;1.88;;;;;;;-3.67;77.59;101317.44;5093714;28;20041;-67
2023/02/11 07:37:34;;;;;;;2.85;2.67;;;;;;;-3.55;77.17;101313.44;5093747;28;20036;-66
2023/02/11 07:40:03;;;;;;;5.25;3.08;;;;;;;-3.54;77.44;101300.19;5093674;28;20055;-66
2023/02/11 07:42:34;;;;;;;3.92;2.80;;;;;;;-3.51;76.99;101315.41;5094562;28;20544;-67
2023/02/11 07:45:04;;;;;;;2.10;1.92;;;;;;;-3.40;77.04;101325.50;5093701;28;20097;-67
2023/02/11 07:47:34;;;;;;;1.50;1.40;;;;;;;-3.27;77.56;101317.38;5093615;28;20135;-66
2023/02/11 07:50:03;;;;;;;;;;;;;;;-3.20;76.90;101324.59;5093860;28;20055;-67
2023/02/11 07:52:32;;;;;;;1.63;1.52;;;;;;;-3.15;77.13;101318.34;5093749;28;19920;-67
2023/02/11 07:55:01;;;;;;;1.33;1.23;;;;;;;-3.17;76.99;101317.38;5093891;28;20064;-67
2023/02/11 07:57:32;;;;;;;1.52;1.42;;;;;;;-3.12;76.73;101308.59;5092560;28;20421;-67
2023/02/11 08:00:01;;;;;;;1.97;1.83;;;;;;;-3.19;76.59;101293.88;5093886;28;20106;-66
2023/02/11 08:02:39;;;;;;;4.35;3.53;;;;;;;-2.96;76.52;101311.56;5093620;28;20047;-67
2023/02/11 08:05:08;;;;;;;2.50;2.30;;;;;;;-2.88;76.71;101310.53;5093852;28;20052;-67
2023/02/11 08:07:37;;;;;;;2.13;2.00;;;;;;;-2.88;76.37;101305.53;5093683;28;20136;-67
2023/02/11 08:10:06;;;;;;;8.40;4.35;;;;;;;-2.96;76.52;101295.69;5093615;28;20389;-67
2023/02/11 08:12:35;;;;;;;4.85;4.35;;;;;;;-2.85;76.56;101310.78;5093370;28;20123;-68
2023/02/11 08:15:04;;;;;;;2.88;2.67;;;;;;;-2.75;76.28;101302.38;5093692;28;20512;-68
2023/02/11 08:17:35;;;;;;;5.55;3.95;;;;;;;-2.78;75.92;101289.63;5093542;28;20501;-68
2023/02/11 08:20:07;;;;;;;2.13;2.00;;;;;;;-2.79;76.14;101283.78;5093640;28;20447;-67
2023/02/11 08:22:36;;;;;;;1.42;1.33;;;;;;;-2.67;76.54;101296.34;5093372;28;20075;-68
2023/02/11 08:25:05;;;;;;;8.23;4.13;;;;;;;-2.48;76.30;101286.13;5093428;28;20541;-68
2023/02/11 08:27:34;;;;;;;9.75;4.68;;;;;;;-2.37;76.06;101287.81;5103742;28;20058;-66
2023/02/11 08:30:03;;;;;;;2.50;2.30;;;;;;;-2.25;75.39;101286.22;5113604;28;20105;-66
2023/02/11 08:32:34;;;;;;;2.63;2.38;;;;;;;-2.23;75.79;101277.25;5117796;28;20130;-66
2023/02/11 08:35:02;;;;;;;1.65;1.55;;;;;;;-2.14;75.75;101277.94;5117632;28;20075;-66
2023/02/11 08:37:33;;;;;;;2.38;2.25;;;;;;;-2.06;75.62;101284.34;5117699;28;20366;-66
2023/02/11 08:40:02;;;;;;;3.28;2.22;;;;;;;-2.03;75.34;101277.09;5117548;28;20537;-66
2023/02/11 08:42:30;;;;;;;4.45;2.65;;;;;;;-2.09;74.95;101279.16;5117385;28;20497;-66
2023/02/11 08:44:59;;;;;;;2.55;2.35;;;;;;;-2.12;75.24;101272.28;5117981;28;20075;-66
2023/02/11 08:47:28;;;;;;;2.37;2.17;;;;;;;-2.04;75.25;101276.22;5117330;28;20055;-66
2023/02/11 08:49:57;;;;;;;2.78;1.73;;;;;;;-1.96;75.34;101271.78;5117305;27;20048;-65
2023/02/11 08:52:26;;;;;;;6.67;4.83;;;;;;;-1.89;75.63;101263.97;5117267;28;20063;-66
2023/02/11 08:54:56;;;;;;;3.33;3.03;;;;;;;-1.86;75.37;101276.72;5115818;28;20036;-66
2023/02/11 08:57:26;;;;;;;3.40;2.42;;;;;;;-1.88;75.38;101268.22;5101432;28;20052;-65
2023/02/11 08:59:55;;;;;;;3.40;2.60;;;;;;;-1.80;75.64;101271.28;5106853;28;20533;-65
2023/02/11 09:02:25;;;;;;;3.17;2.88;;;;;;;-1.66;75.91;101273.16;5116902;28;20070;-66
2023/02/11 09:04:54;;;;;;;2.30;2.17;;;;;;;-1.63;75.91;101264.25;5116881;28;20035;-66
2023/02/11 09:07:23;;;;;;;3.70;3.42;;;;;;;-1.57;75.35;101269.69;5116789;28;20124;-66
2023/02/11 09:09:52;;;;;;;17.10;5.83;;;;;;;-1.58;75.28;101267.06;5117227;27;20390;-66
2023/02/11 09:12:22;;;;;;;4.20;3.60;;;;;;;-1.54;75.13;101256.53;5116824;28;20558;-65
2023/02/11 09:14:52;;;;;;;3.30;2.90;;;;;;;-1.48;75.04;101256.97;5117119;28;20397;-66
2023/02/11 09:17:21;;;;;;;6.82;3.78;;;;;;;-1.42;74.77;101253.25;5116475;28;20040;-66
2023/02/11 09:19:49;;;;;;;1.80;1.70;;;;;;;-1.38;74.71;101250.25;5116442;28;20051;-65
2023/02/11 09:22:18;;;;;;;1.60;1.55;;;;;;;-1.33;74.79;101258.06;5116514;28;20043;-65
2023/02/11 09:24:47;;;;;;;2.13;1.92;;;;;;;-1.28;74.77;101250.88;5115155;28;20042;-65
2023/02/11 09:27:16;;;;;;;1.97;1.40;;;;;;;-1.24;74.66;101253.72;5116401;28;20044;-66
2023/02/11 09:29:46;;;;;;;3.23;3.03;;;;;;;-1.21;74.53;101268.09;5116444;28;20042;-65
2023/02/11 09:32:15;;;;;;;5.05;4.57;;;;;;;-1.17;74.69;101270.03;5116567;28;20078;-66
2023/02/11 09:34:43;;;;;;;2.83;2.30;;;;;;;-1.11;74.65;101265.47;5116341;28;20044;-65
2023/02/11 09:37:12;;;;;;;4.38;3.97;;;;;;;-1.05;74.56;101270.91;5116223;28;20056;-65
2023/02/11 09:39:41;;;;;;;5.32;4.88;;;;;;;-0.95;75.16;101273.31;5116357;28;20146;-65
2023/02/11 09:42:34;;;;;;;3.20;2.97;;;;;;;-0.84;74.85;101283.31;5116241;28;20040;-65
2023/02/11 09:45:14;;;;;;;3.60;2.85;;;;;;;-0.74;74.89;101287.31;5116544;27;20088;-66
2023/02/11 09:47:49;;;;;;;3.25;3.00;;;;;;;-0.64;74.77;101277.19;5116155;28;20067;-66
2023/02/11 09:50:23;;;;;;;0.88;0.80;;;;;;;-0.58;74.60;101272.59;5116052;28;20073;-66
2023/02/11 09:52:58;;;;;;;4.43;2.95;;;;;;;-0.51;74.52;101262.22;5116468;28;20043;-65
2023/02/11 09:55:30;;;;;;;4.32;3.92;;;;;;;-0.54;74.31;101249.47;5116337;28;20489;-65
2023/02/11 09:57:59;;;;;;;3.45;3.15;;;;;;;-0.51;74.25;101239.66;5116128;28;20493;-65
2023/02/11 10:00:33;;;;;;;;;;;;;;;-0.53;74.18;101241.19;5116160;28;20044;-65
2023/02/11 10:03:22;;;;;;;1.70;1.63;;;;;;;-0.64;74.22;101232.06;5115882;28;19920;-65
2023/02/11 10:06:08;;;;;;;13.23;6.28;;;;;;;-0.66;74.56;101233.59;5115888;28;20135;-65
2023/02/11 10:08:45;;;;;;;2.85;2.63;;;;;;;-0.63;74.90;101223.78;5116069;28;20039;-65
2023/02/11 10:11:23;;;;;;;1.55;1.45;;;;;;;-0.57;74.98;101228.31;5116049;28;20047;-65
2023/02/11 10:14:13;;;;;;;6.95;2.72;;;;;;;-0.58;75.22;101231.63;5115945;27;20054;-65
2023/02/11 10:16:59;;;;;;;4.70;3.15;;;;;;;-0.57;75.52;101223.31;5115817;28;20071;-65
2023/02/11 10:19:43;;;;;;;2.17;2.00;;;;;;;-0.59;75.56;101205.66;5115549;28;20123;-65
2023/02/11 10:22:19;;;;;;;5.05;3.95;;;;;;;-0.49;75.53;101208.03;5115396;28;20047;-65
2023/02/11 10:24:54;;;;;;;5.20;1.80;;;;;;;-0.44;75.94;101196.69;5114657;28;20047;-65
2023/02/11 10:27:31;;;;;;;2.55;2.28;;;;;;;-0.41;75.73;101185.97;5115694;28;20047;-65
2023/02/11 10:30:07;;;;;;;3.28;3.08;;;;;;;-0.25;75.99;101189.59;5115337;28;20044;-65
2023/02/11 10:32:45;;;;;;;6.78;6.15;;;;;;;-0.05;75.73;101189.25;5115346;28;20047;-65
2023/02/11 10:35:16;;;;;;;7.78;4.32;;;;;;;0.19;75.74;101199.16;5115228;28;20052;-65
2023/02/11 10:37:45;;;;;;;4.43;2.58;;;;;;;0.31;75.39;101199.97;5115133;28;20043;-66
2023/02/11 10:40:16;;;;;;;5.07;3.58;;;;;;;0.47;75.71;101182.56;5115056;28;20059;-64
2023/02/11 10:42:49;;;;;;;4.80;4.30;;;;;;;0.71;75.25;101174.06;5115092;28;20043;-64
2023/02/11 10:45:27;;;;;;;2.17;2.05;;;;;;;1.22;74.73;101159.63;5115082;28;20558;-64
2023/02/11 10:47:59;;;;;;;5.93;5.38;;;;;;;1.39;74.01;101142.19;5114977;28;20044;-65
2023/02/11 10:50:32;;;;;;;2.95;2.53;;;;;;;1.43;74.16;101151.63;5114997;28;20103;-64
2023/02/11 10:53:19;;;;;;;25.70;5.78;;;;;;;1.51;74.44;101146.28;5114698;28;20055;-64
2023/02/11 10:55:53;;;;;;;2.50;1.95;;;;;;;1.74;73.04;101127.47;5115052;28;20561;-65
2023/02/11 10:58:26;;;;;;;6.32;4.13;;;;;;;1.74;72.99;101117.41;5114745;28;20035;-64
2023/02/11 11:00:58;;;;;;;2.38;2.17;;;;;;;1.73;72.54;101108.13;5114624;28;20078;-64
2023/02/11 11:03:34;;;;;;;3.92;2.85;;;;;;;1.64;71.16;101107.59;5114639;28;20040;-63
2023/02/11 11:06:05;;;;;;;2.38;2.10;;;;;;;1.83;71.19;101130.50;5114590;28;20047;-65
2023/02/11 11:08:41;;;;;;;6.13;4.40;;;;;;;2.14;70.56;101136.50;5114653;28;20050;-65
2023/02/11 11:11:13;;;;;;;5.22;3.72;;;;;;;2.27;69.97;101131.38;5114830;28;20047;-64
2023/02/11 11:13:54;;;;;;;5.75;4.78;;;;;;;2.45;68.57;101137.41;5115071;28;20146;-64
2023/02/11 11:16:26;;;;;;;3.78;3.05;;;;;;;2.52;68.60;101139.47;5114481;28;20069;-64
2023/02/11 11:19:20;;;;;;;2.08;1.98;;;;;;;2.72;67.89;101133.88;5114575;28;20524;-64
2023/02/11 11:21:51;;;;;;;7.68;5.63;;;;;;;2.93;67.85;101130.78;5114663;27;20058;-64
2023/02/11 11:24:29;;;;;;;7.60;4.75;;;;;;;3.13;66.36;101127.63;5114712;28;20109;-64
2023/02/11 11:27:00;;;;;;;6.07;3.70;;;;;;;3.01;65.78;101116.91;5114591;28;20040;-63
2023/02/11 11:29:35;;;;;;;2.38;2.15;;;;;;;3.23;66.07;101099.56;5114913;28;20485;-63
2023/02/11 11:32:06;;;;;;;1.67;1.58;;;;;;;3.46;65.83;101101.59;5114532;28;20447;-63
2023/02/11 11:34:39;;;;;;;5.25;3.63;;;;;;;3.38;66.19;101095.31;5114474;28;20044;-63
2023/02/11 11:37:12;;;;;;;3.13;2.90;;;;;;;3.24;66.60;101091.19;5114210;28;20044;-64
2023/02/11 11:39:41;;;;;;;4.43;4.05;;;;;;;3.46;66.88;101083.91;5113973;28;20131;-65
2023/02/11 11:42:26;;;;;;;4.90;4.38;;;;;;;3.60;66.54;101075.38;5114093;28;20134;-65
2023/02/11 11:45:01;;;;;;;6.50;3.97;;;;;;;3.54;65.69;101080.13;5114260;28;20142;-64
2023/02/11 11:47:40;;;;;;;4.03;3.58;;;;;;;3.47;65.79;101070.53;5114124;28;20104;-65
2023/02/11 11:50:26;;;;;;;5.37;3.40;;;;;;;3.64;66.21;101069.72;5114101;28;20039;-64
2023/02/11 11:53:04;;;;;;;2.78;2.42;;;;;;;3.79;65.79;101070.44;5114196;28;20193;-65
2023/02/11 11:55:38;;;;;;;4.70;4.32;;;;;;;3.69;65.04;101068.28;5114084;28;20055;-66